Time;durP1;ratioP1;P1;durP2;ratioP2;P2;SDS_P1;SDS_P2;PMS_P1;PMS_P2;Temp;Humidity;BMP_temperature;BMP_pressure;BME280_temperature;BME280_humidity;BME280_pressure;Samples;Min_cycle;Max_cycle;Signal;HPM_P1;HPM_P2
2022/04/02 00:00:02;;;;;;;35.38;22.05;;;;;;;5.85;60.77;97990.88;4487616;31;34227;-76
2022/04/02 00:02:39;;;;;;;36.85;22.55;;;;;;;5.45;61.95;97988.41;4475109;31;33100;-76
2022/04/02 00:05:08;;;;;;;35.53;21.90;;;;;;;5.46;61.64;97981.06;4501794;31;35578;-76
2022/04/02 00:07:38;;;;;;;35.67;22.13;;;;;;;5.16;62.16;97998.00;4474092;31;32511;-76
2022/04/02 00:10:10;;;;;;;35.67;23.08;;;;;;;5.00;62.89;97986.75;4501556;31;34097;-76
2022/04/02 00:12:39;;;;;;;35.85;21.73;;;;;;;5.06;62.95;97984.00;4473353;31;32337;-76
2022/04/02 00:15:08;;;;;;;35.40;22.00;;;;;;;5.31;62.03;97986.81;4474411;31;34052;-76
2022/04/02 00:17:36;;;;;;;35.50;21.92;;;;;;;5.31;61.86;97994.97;4487458;31;33985;-76
2022/04/02 00:20:07;;;;;;;37.50;21.75;;;;;;;5.09;62.82;98002.63;4486810;31;32006;-76
2022/04/02 00:23:35;;;;;;;33.80;21.42;;;;;;;5.18;62.18;98001.31;4460137;31;32817;-76
2022/04/02 00:25:31;;;;;;;34.67;20.85;;;;;;;5.17;62.56;97979.78;4487721;31;34313;-76
2022/04/02 00:28:04;;;;;;;35.80;20.77;;;;;;;5.19;62.00;97973.09;4486904;31;32563;-76
2022/04/02 00:30:35;;;;;;;34.08;21.92;;;;;;;4.85;62.14;97955.25;4473815;31;32860;-76
2022/04/02 00:33:05;;;;;;;35.67;21.67;;;;;;;4.68;63.29;97962.19;4486991;31;33402;-76
2022/04/02 00:35:38;;;;;;;33.53;20.85;;;;;;;5.14;61.62;97959.31;4501390;31;34554;-76
2022/04/02 00:38:10;;;;;;;36.40;22.37;;;;;;;4.75;62.62;97956.75;4501245;31;34205;-76
2022/04/02 00:40:44;;;;;;;35.47;21.37;;;;;;;4.40;63.89;97950.78;4487415;31;34232;-76
2022/04/02 00:43:28;;;;;;;34.28;21.10;;;;;;;3.70;66.12;97952.31;4474008;31;34471;-76
2022/04/02 00:45:58;;;;;;;35.97;21.52;;;;;;;3.90;65.82;97945.84;4487027;31;35131;-76
2022/04/02 00:48:27;;;;;;;32.92;20.40;;;;;;;3.62;66.92;97937.09;4501007;31;34046;-76
2022/04/02 00:50:57;;;;;;;34.60;21.33;;;;;;;4.44;64.19;97947.44;4486931;31;33501;-76
2022/04/02 00:53:31;;;;;;;34.90;21.73;;;;;;;4.09;65.03;97936.00;4486887;31;33724;-76
2022/04/02 00:56:03;;;;;;;35.95;20.65;;;;;;;4.19;64.82;97949.16;4472669;31;33916;-76
2022/04/02 00:58:33;;;;;;;33.60;21.37;;;;;;;3.80;66.06;97953.59;4486875;31;33636;-76
2022/04/02 01:01:03;;;;;;;37.15;21.65;;;;;;;3.20;68.19;97949.13;4501223;31;33711;-76
2022/04/02 01:03:34;;;;;;;34.83;21.80;;;;;;;3.29;67.74;97948.72;4486811;31;34903;-76
2022/04/02 01:06:09;;;;;;;32.53;19.77;;;;;;;3.92;66.18;97954.59;4500950;31;34616;-76
2022/04/02 01:08:40;;;;;;;37.28;21.95;;;;;;;3.90;65.66;97953.16;4473591;31;32189;-76
2022/04/02 01:11:08;;;;;;;34.80;20.50;;;;;;;4.18;64.58;97958.34;4487043;31;34253;-76
2022/04/02 01:13:36;;;;;;;37.30;21.15;;;;;;;3.76;65.92;97967.78;4486825;31;33718;-76
2022/04/02 01:16:05;;;;;;;34.38;19.92;;;;;;;3.86;65.70;97984.47;4486371;31;33787;-76
2022/04/02 01:18:36;;;;;;;31.20;19.30;;;;;;;4.13;64.73;97983.41;4500991;31;34072;-76
2022/04/02 01:21:06;;;;;;;29.70;18.87;;;;;;;4.23;63.59;97983.00;4487186;31;33162;-76
2022/04/02 01:23:38;;;;;;;31.70;19.05;;;;;;;4.45;63.21;97992.56;4486942;31;33692;-76
2022/04/02 01:26:10;;;;;;;30.55;19.67;;;;;;;4.45;63.14;98005.31;4500671;31;35065;-76
2022/04/02 01:28:40;;;;;;;28.42;17.48;;;;;;;4.12;63.65;98003.47;4473661;31;33775;-76
2022/04/02 01:31:14;;;;;;;28.20;17.17;;;;;;;3.90;64.20;98015.59;4500601;31;33294;-76
2022/04/02 01:33:44;;;;;;;29.25;17.65;;;;;;;3.80;64.43;98015.16;4500337;31;33658;-76
2022/04/02 01:36:19;;;;;;;32.67;19.15;;;;;;;4.16;63.92;98015.56;4500322;31;35350;-76
2022/04/02 01:38:53;;;;;;;29.52;18.37;;;;;;;4.09;63.17;98017.44;4473239;31;34158;-76
2022/04/02 01:41:21;;;;;;;29.00;17.15;;;;;;;4.40;62.91;98022.25;4486389;31;34516;-76
2022/04/02 01:43:52;;;;;;;28.90;16.73;;;;;;;4.72;61.90;98019.66;4486449;31;35192;-76
2022/04/02 01:46:20;;;;;;;27.75;17.02;;;;;;;4.75;61.12;98020.06;4472890;31;33931;-76
2022/04/02 01:48:52;;;;;;;29.10;17.20;;;;;;;4.77;61.21;98017.97;4486686;31;33820;-76
2022/04/02 01:51:25;;;;;;;27.02;16.98;;;;;;;4.97;60.83;98007.06;4473185;31;33071;-76
2022/04/02 01:53:53;;;;;;;26.27;16.65;;;;;;;4.92;60.35;98021.28;4483107;32;34530;-76
2022/04/02 01:56:23;;;;;;;24.52;15.95;;;;;;;5.12;60.10;98031.25;4484353;32;35328;-76
2022/04/02 01:58:58;;;;;;;24.83;16.25;;;;;;;4.73;60.61;98032.19;4484457;32;34009;-76
2022/04/02 02:01:32;;;;;;;29.23;17.17;;;;;;;5.06;60.16;98029.41;4483195;32;33255;-76
2022/04/02 02:04:00;;;;;;;23.85;15.32;;;;;;;5.03;60.65;98027.13;4484236;32;34506;-76
2022/04/02 02:06:29;;;;;;;25.45;16.50;;;;;;;4.96;60.07;98025.25;4457174;32;33033;-77
2022/04/02 02:09:00;;;;;;;24.85;17.15;;;;;;;5.10;59.90;98036.91;4486160;32;33909;-76
2022/04/02 02:11:32;;;;;;;25.92;15.52;;;;;;;5.25;59.81;98031.19;4485528;32;33492;-76
2022/04/02 02:14:06;;;;;;;25.02;16.17;;;;;;;5.38;59.53;98044.72;4472336;32;34005;-76
2022/04/02 02:16:37;;;;;;;25.40;16.25;;;;;;;5.29;60.07;98055.03;4485167;32;34451;-76
2022/04/02 02:19:04;;;;;;;24.58;16.02;;;;;;;5.41;59.62;98041.56;4471334;32;33363;-77
2022/04/02 02:21:35;;;;;;;26.67;16.67;;;;;;;5.63;58.69;98037.50;4486220;32;34223;-76
2022/04/02 02:24:06;;;;;;;24.92;15.98;;;;;;;5.53;59.04;98044.47;4472421;32;34388;-76
2022/04/02 02:26:37;;;;;;;25.62;16.62;;;;;;;5.34;59.39;98040.78;4472021;32;33924;-76
2022/04/02 02:29:10;;;;;;;26.50;16.40;;;;;;;5.42;59.12;98043.25;4485322;32;34017;-76
2022/04/02 02:31:38;;;;;;;25.27;16.58;;;;;;;5.58;58.87;98037.31;4485132;32;34380;-76
2022/04/02 02:36:58;;;;;;;25.02;16.25;;;;;;;5.62;58.52;98035.00;4486294;32;35256;-76
2022/04/02 02:39:33;;;;;;;24.95;16.10;;;;;;;5.34;58.86;98037.22;4486281;32;33806;-76
2022/04/02 02:42:01;;;;;;;25.27;16.30;;;;;;;5.47;58.99;98037.16;4472006;32;32182;-76
2022/04/02 02:44:36;;;;;;;23.95;15.57;;;;;;;5.46;58.94;98030.03;4484911;32;33684;-76
2022/04/02 02:47:11;;;;;;;24.98;16.83;;;;;;;5.62;58.98;98035.00;4472337;32;34042;-76
2022/04/02 02:49:39;;;;;;;25.30;17.02;;;;;;;5.38;59.38;98033.84;4486295;32;34649;-76
2022/04/02 02:52:10;;;;;;;26.65;17.33;;;;;;;5.47;58.49;98040.72;4485410;31;33676;-76
2022/04/02 02:54:43;;;;;;;27.45;17.87;;;;;;;5.22;58.34;98050.66;4501950;31;33605;-75
2022/04/02 02:57:11;;;;;;;26.02;16.20;;;;;;;5.48;57.88;98055.97;4462005;31;32986;-76
2022/04/02 02:59:44;;;;;;;24.27;15.95;;;;;;;5.00;58.70;98046.56;4487788;31;34601;-76
2022/04/02 03:02:13;;;;;;;24.70;15.45;;;;;;;5.30;58.20;98056.69;4502088;31;34073;-77
2022/04/02 03:04:44;;;;;;;28.33;16.35;;;;;;;5.40;57.82;98050.78;4475198;31;34115;-76
2022/04/02 03:07:17;;;;;;;25.62;16.50;;;;;;;5.33;57.90;98049.97;4462168;31;33054;-76
2022/04/02 03:09:44;;;;;;;26.33;16.48;;;;;;;5.11;58.43;98052.19;4501762;31;33845;-76
2022/04/02 03:12:13;;;;;;;25.65;16.65;;;;;;;5.14;58.69;98056.34;4502042;31;33592;-76
2022/04/02 03:14:44;;;;;;;26.33;17.62;;;;;;;5.29;58.23;98055.03;4487901;31;33704;-76
2022/04/02 03:17:18;;;;;;;25.30;16.83;;;;;;;5.21;58.37;98068.00;4487413;31;33108;-76
2022/04/02 03:19:47;;;;;;;24.77;15.95;;;;;;;5.04;58.42;98061.41;4486811;31;33473;-76
2022/04/02 03:22:20;;;;;;;24.48;15.35;;;;;;;5.16;58.33;98062.41;4501777;31;33322;-76
2022/04/02 03:24:54;;;;;;;24.48;15.93;;;;;;;5.35;57.84;98066.91;4488223;31;34441;-76
2022/04/02 03:27:26;;;;;;;27.08;16.67;;;;;;;4.69;59.04;98067.13;4475294;31;34346;-76
2022/04/02 03:29:55;;;;;;;26.15;17.17;;;;;;;4.87;59.04;98063.75;4501788;31;34071;-76
2022/04/02 03:32:23;;;;;;;27.98;17.27;;;;;;;4.61;59.46;98070.03;4501858;31;33997;-76
2022/04/02 03:34:57;;;;;;;27.83;17.37;;;;;;;4.76;59.92;98075.25;4487791;31;33317;-76
2022/04/02 03:37:28;;;;;;;28.00;16.73;;;;;;;4.57;60.36;98072.34;4474454;31;34130;-76
2022/04/02 03:39:59;;;;;;;25.12;15.95;;;;;;;4.83;59.72;98070.66;4474417;31;32401;-76
2022/04/02 03:42:32;;;;;;;27.10;16.55;;;;;;;4.75;60.34;98071.72;4487216;31;31955;-76
2022/04/02 03:45:08;;;;;;;26.65;16.55;;;;;;;4.99;59.67;98069.38;4475103;31;33141;-76
2022/04/02 03:47:39;;;;;;;24.85;16.70;;;;;;;5.01;59.47;98067.28;4487775;31;35297;-76
2022/04/02 03:50:09;;;;;;;28.42;17.23;;;;;;;4.74;59.71;98061.88;4474408;31;33156;-76
2022/04/02 03:52:40;;;;;;;24.63;16.75;;;;;;;4.52;60.59;98057.75;4474110;31;32669;-76
2022/04/02 03:55:11;;;;;;;27.10;16.98;;;;;;;4.69;60.33;98056.25;4488050;31;33190;-76
2022/04/02 03:57:44;;;;;;;26.77;16.62;;;;;;;4.23;61.94;98061.72;4487245;31;33031;-76
2022/04/02 04:00:15;;;;;;;27.87;17.25;;;;;;;4.40;61.31;98048.56;4487526;31;33866;-76
2022/04/02 04:02:46;;;;;;;31.75;18.02;;;;;;;4.36;62.01;98058.19;4487253;31;32001;-76
2022/04/02 04:05:19;;;;;;;26.52;17.05;;;;;;;4.29;61.34;98056.31;4486996;31;32529;-76
2022/04/02 04:07:50;;;;;;;28.42;16.30;;;;;;;4.16;61.27;98047.31;4487566;31;34416;-76
2022/04/02 04:10:20;;;;;;;26.27;17.17;;;;;;;4.16;61.50;98055.47;4487499;31;33724;-76
2022/04/02 04:12:52;;;;;;;26.55;17.02;;;;;;;4.24;61.56;98056.09;4501453;31;33446;-76
2022/04/02 04:15:20;;;;;;;28.77;17.08;;;;;;;4.09;61.60;98054.62;4500973;31;33779;-76
2022/04/02 04:17:48;;;;;;;27.95;17.50;;;;;;;4.32;61.17;98055.03;4487146;31;34760;-76
2022/04/02 04:20:21;;;;;;;28.50;17.27;;;;;;;4.43;60.90;98056.31;4487188;31;34219;-76
2022/04/02 04:22:52;;;;;;;28.05;18.10;;;;;;;4.49;60.90;98063.59;4487165;31;33136;-76
2022/04/02 04:25:22;;;;;;;28.35;17.73;;;;;;;4.66;60.35;98066.69;4487230;31;33929;-76
2022/04/02 04:27:50;;;;;;;27.13;17.33;;;;;;;4.55;60.83;98071.72;4487764;31;35099;-76
2022/04/02 04:30:27;;;;;;;26.80;16.65;;;;;;;4.78;60.28;98074.00;4487432;31;34598;-76
2022/04/02 04:32:57;;;;;;;26.00;17.50;;;;;;;4.76;60.25;98081.53;4486957;31;33297;-76
2022/04/02 04:35:33;;;;;;;27.83;17.30;;;;;;;4.67;60.15;98071.09;4487908;31;34484;-76
2022/04/02 04:38:06;;;;;;;26.67;17.73;;;;;;;4.80;60.30;98082.78;4486714;31;33708;-76
2022/04/02 04:40:39;;;;;;;29.60;18.17;;;;;;;4.73;60.12;98081.94;4501511;31;34077;-76
2022/04/02 04:43:13;;;;;;;29.50;18.90;;;;;;;4.58;60.40;98084.06;4486940;31;33384;-76
2022/04/02 04:45:42;;;;;;;28.35;18.15;;;;;;;4.55;60.56;98084.50;4487382;31;33945;-76
2022/04/02 04:48:10;;;;;;;28.23;17.75;;;;;;;4.55;60.45;98090.75;4487142;31;34362;-76
2022/04/02 04:50:46;;;;;;;27.98;17.70;;;;;;;4.49;61.08;98086.19;4474418;31;34176;-74
2022/04/02 04:53:17;;;;;;;26.50;17.95;;;;;;;4.67;60.09;98090.09;4487032;31;34153;-74
2022/04/02 04:55:48;;;;;;;28.00;18.05;;;;;;;4.74;60.08;98091.78;4486560;31;32291;-74
2022/04/02 04:58:19;;;;;;;27.50;16.73;;;;;;;4.71;59.90;98085.94;4486968;31;34128;-74
2022/04/02 05:00:53;;;;;;;31.58;19.48;;;;;;;4.95;68.00;98086.09;4473932;31;34044;-75
2022/04/02 05:03:22;;;;;;;30.08;17.98;;;;;;;5.00;63.20;98090.91;4487293;31;33357;-74
2022/04/02 05:05:54;;;;;;;30.73;19.70;;;;;;;4.69;60.67;98083.41;4501194;31;34712;-74
2022/04/02 05:08:26;;;;;;;32.42;19.42;;;;;;;4.67;60.09;98090.94;4486913;31;34707;-74
2022/04/02 05:10:56;;;;;;;30.98;18.90;;;;;;;4.92;59.96;98100.12;4501059;31;34305;-75
2022/04/02 05:13:24;;;;;;;35.15;21.45;;;;;;;5.04;59.93;98094.03;4486607;31;33588;-75
2022/04/02 05:15:57;;;;;;;32.10;18.17;;;;;;;5.12;59.97;98104.69;4473603;31;33657;-74
2022/04/02 05:18:26;;;;;;;32.33;19.50;;;;;;;5.23;59.69;98107.56;4500697;31;35654;-74
2022/04/02 05:21:05;;;;;;;31.67;19.33;;;;;;;5.31;59.46;98106.47;4486865;31;33773;-74
2022/04/02 05:23:40;;;;;;;33.13;19.50;;;;;;;4.87;59.85;98113.50;4500503;31;33677;-74
2022/04/02 05:26:08;;;;;;;29.05;18.00;;;;;;;5.18;59.61;98112.00;4486602;31;33591;-74
2022/04/02 05:28:41;;;;;;;31.85;18.92;;;;;;;5.06;60.30;98121.84;4500274;31;34300;-74
2022/04/02 05:31:14;;;;;;;31.27;18.87;;;;;;;5.18;60.30;98112.00;4473522;31;33416;-74
2022/04/02 05:33:45;;;;;;;31.33;18.23;;;;;;;5.31;59.36;98120.09;4485882;31;33578;-74
2022/04/02 05:36:21;;;;;;;30.58;18.67;;;;;;;5.38;59.05;98122.78;4486806;31;33477;-74
2022/04/02 05:38:52;;;;;;;33.50;20.15;;;;;;;5.16;59.42;98120.34;4495403;31;35211;-74
2022/04/02 05:41:22;;;;;;;31.25;19.02;;;;;;;5.55;58.65;98130.25;4486276;31;33929;-74
2022/04/02 05:43:52;;;;;;;31.33;19.30;;;;;;;5.30;58.94;98123.84;4472288;32;33242;-74
2022/04/02 05:46:28;;;;;;;28.52;18.10;;;;;;;4.86;60.56;98127.31;4486630;32;34050;-74
2022/04/02 05:49:00;;;;;;;30.48;20.12;;;;;;;5.35;60.03;98115.06;4472487;32;32459;-74
2022/04/02 05:51:33;;;;;;;31.60;18.62;;;;;;;5.52;59.57;98121.69;4472895;32;33888;-74
2022/04/02 05:54:03;;;;;;;29.42;19.42;;;;;;;5.46;59.06;98125.28;4486306;32;33699;-74
2022/04/02 05:56:37;;;;;;;28.65;18.73;;;;;;;5.22;59.59;98127.63;4459245;32;32333;-75
2022/04/02 05:59:10;;;;;;;32.63;19.42;;;;;;;5.67;58.98;98141.31;4472812;32;34255;-74
2022/04/02 06:01:43;;;;;;;30.37;20.08;;;;;;;5.73;58.62;98136.88;4459362;32;33690;-74
2022/04/02 06:04:17;;;;;;;28.73;18.35;;;;;;;5.95;57.80;98138.25;4471347;32;33439;-74
2022/04/02 06:06:47;;;;;;;29.12;18.75;;;;;;;5.77;57.49;98129.97;4472210;32;34601;-73
2022/04/02 06:09:20;;;;;;;29.50;18.52;;;;;;;5.88;58.68;98126.53;4470747;32;33950;-75
2022/04/02 06:11:50;;;;;;;28.60;17.60;;;;;;;5.98;59.81;98128.81;4485931;32;34632;-77
2022/04/02 06:14:27;;;;;;;28.83;18.00;;;;;;;6.38;58.23;98126.69;4486007;32;33368;-76
2022/04/02 06:17:00;;;;;;;29.08;18.73;;;;;;;5.89;57.48;98139.97;4471364;32;33377;-76
2022/04/02 06:19:28;;;;;;;26.40;17.20;;;;;;;6.44;57.23;98140.28;4459260;32;34112;-75
2022/04/02 06:22:06;;;;;;;24.65;16.62;;;;;;;6.68;56.39;98146.78;4459711;32;32911;-78
2022/04/02 06:24:37;;;;;;;34.80;19.95;;;;;;;6.95;56.35;98144.66;4459326;32;32558;-75
2022/04/02 06:27:05;;;;;;;38.85;23.02;;;;;;;7.29;60.05;98148.72;4471858;32;32465;-78
2022/04/02 06:29:38;;;;;;;30.05;19.30;;;;;;;7.40;56.36;98144.41;4459350;32;33561;-76
2022/04/02 06:32:11;;;;;;;26.20;17.87;;;;;;;7.55;56.64;98140.25;4458916;32;33313;-74
2022/04/02 06:34:44;;;;;;;29.02;16.87;;;;;;;6.89;54.71;98146.41;4472144;32;33561;-76
2022/04/02 06:37:15;;;;;;;28.77;16.83;;;;;;;6.93;54.41;98153.06;4472941;32;33551;-76
2022/04/02 06:39:43;;;;;;;28.45;17.55;;;;;;;7.21;54.20;98149.00;4486452;32;33997;-75
2022/04/02 06:42:17;;;;;;;26.20;16.20;;;;;;;6.87;54.35;98158.59;4486388;32;34555;-76
2022/04/02 06:44:49;;;;;;;24.45;15.25;;;;;;;6.37;55.44;98155.00;4472800;32;34111;-76
2022/04/02 06:47:30;;;;;;;29.05;17.00;;;;;;;5.93;56.53;98156.69;4471916;32;33697;-76
2022/04/02 06:50:07;;;;;;;27.50;15.95;;;;;;;6.39;55.16;98155.59;4459673;32;33427;-76
2022/04/02 06:52:43;;;;;;;25.58;15.70;;;;;;;5.85;56.89;98162.38;4459740;32;34589;-76
2022/04/02 06:55:12;;;;;;;25.92;16.20;;;;;;;6.10;56.00;98167.94;4471503;32;33208;-76
2022/04/02 06:57:48;;;;;;;25.08;15.88;;;;;;;6.30;56.23;98155.03;4459332;32;33664;-76
2022/04/02 07:00:23;;;;;;;23.25;15.13;;;;;;;5.89;56.27;98163.63;4472413;32;35300;-76
2022/04/02 07:02:54;;;;;;;23.90;15.38;;;;;;;6.03;56.51;98165.25;4459103;32;33427;-76
2022/04/02 07:05:25;;;;;;;26.12;16.15;;;;;;;6.05;56.68;98171.31;4471925;32;31789;-76
2022/04/02 07:07:56;;;;;;;24.80;15.13;;;;;;;6.13;57.55;98168.34;4471768;32;32207;-76
2022/04/02 07:10:29;;;;;;;24.37;14.63;;;;;;;6.55;55.31;98174.13;4472321;32;34243;-76
2022/04/02 07:13:02;;;;;;;22.85;14.10;;;;;;;6.36;55.09;98166.94;4472465;32;33772;-75
2022/04/02 07:15:35;;;;;;;25.10;15.68;;;;;;;6.25;56.26;98172.03;4459426;32;32060;-76
2022/04/02 07:18:10;;;;;;;23.85;15.73;;;;;;;6.42;56.96;98171.53;4472592;32;33485;-75
2022/04/02 07:20:40;;;;;;;23.17;15.07;;;;;;;6.69;56.64;98178.44;4446525;32;33618;-76
2022/04/02 07:23:13;;;;;;;24.02;15.68;;;;;;;6.82;56.49;98170.16;4472628;32;33797;-75
2022/04/02 07:25:44;;;;;;;22.98;13.68;;;;;;;6.93;55.33;98169.44;4472262;32;34160;-75
2022/04/02 07:28:14;;;;;;;21.37;13.35;;;;;;;6.19;55.46;98180.25;4472595;32;33580;-76
2022/04/02 07:30:53;;;;;;;19.87;12.98;;;;;;;6.56;55.03;98176.62;4472478;32;35204;-77
2022/04/02 07:33:23;;;;;;;24.55;13.18;;;;;;;6.08;55.45;98187.22;4486090;32;33997;-75
2022/04/02 07:35:55;;;;;;;20.10;13.05;;;;;;;6.76;54.84;98176.50;4472059;32;32961;-75
2022/04/02 07:38:30;;;;;;;41.92;25.52;;;;;;;6.47;54.95;98180.72;4479042;31;33758;-76
2022/04/02 07:41:19;;;;;;;27.33;15.98;;;;;;;6.45;58.49;98188.28;4501782;31;34389;-76
2022/04/02 07:43:52;;;;;;;28.35;17.48;;;;;;;6.78;58.14;98185.28;4474587;31;33468;-76
2022/04/02 07:46:27;;;;;;;21.25;13.93;;;;;;;7.20;54.79;98185.53;4475047;31;33281;-76
2022/04/02 07:49:02;;;;;;;20.02;12.70;;;;;;;7.39;53.54;98189.97;4487874;31;33668;-76
2022/04/02 07:51:36;;;;;;;22.55;13.57;;;;;;;7.46;52.88;98188.00;4488153;31;34612;-76
2022/04/02 07:54:17;;;;;;;20.98;12.77;;;;;;;7.42;53.54;98189.53;4487893;31;34009;-76
2022/04/02 07:56:51;;;;;;;22.05;14.80;;;;;;;7.74;53.69;98186.69;4475120;31;32424;-76
2022/04/02 07:59:49;;;;;;;21.77;13.40;;;;;;;8.07;54.04;98184.34;4474770;31;32111;-76
2022/04/02 08:05:13;;;;;;;27.17;16.42;;;;;;;7.80;54.26;98200.22;4490547;31;33765;-76
2022/04/02 08:07:49;;;;;;;22.23;14.52;;;;;;;7.92;52.74;98192.09;4501932;31;33423;-75
2022/04/02 08:10:25;;;;;;;21.33;13.68;;;;;;;7.45;52.78;98201.87;4475296;31;34262;-75
2022/04/02 08:12:59;;;;;;;20.25;13.48;;;;;;;7.60;52.59;98200.47;4501833;31;34282;-75
2022/04/02 08:15:31;;;;;;;21.30;13.70;;;;;;;7.54;53.46;98198.66;4475016;31;33978;-76
2022/04/02 08:18:07;;;;;;;19.80;13.30;;;;;;;7.70;52.32;98193.66;4485422;31;33752;-76
2022/04/02 08:20:35;;;;;;;20.30;12.57;;;;;;;7.51;52.85;98204.56;4484068;31;34611;-76
2022/04/02 08:23:06;;;;;;;19.70;12.93;;;;;;;7.38;53.37;98195.66;4485967;31;34348;-76
2022/04/02 08:25:37;;;;;;;21.10;14.00;;;;;;;7.23;53.48;98204.19;4484172;32;33973;-76
2022/04/02 08:28:22;;;;;;;22.37;13.60;;;;;;;7.67;53.49;98202.28;4471129;32;32706;-75
2022/04/02 08:31:06;;;;;;;21.58;13.40;;;;;;;8.12;52.43;98209.09;4458916;32;33688;-76
2022/04/02 08:34:00;;;;;;;20.62;13.57;;;;;;;8.10;51.80;98205.75;4458969;32;34048;-75
2022/04/02 08:36:47;;;;;;;36.08;21.45;;;;;;;7.23;53.84;98209.66;4443292;32;34640;-75
2022/04/02 08:39:26;;;;;;;26.08;15.55;;;;;;;7.79;53.35;98217.69;4459241;32;33149;-75
2022/04/02 08:42:08;;;;;;;21.08;13.65;;;;;;;8.15;53.24;98213.25;4471929;32;33682;-76
2022/04/02 08:44:55;;;;;;;23.83;14.82;;;;;;;7.65;52.50;98224.38;4471728;32;34071;-76
2022/04/02 08:47:29;;;;;;;18.62;12.05;;;;;;;7.66;53.97;98225.19;4485550;32;34378;-76
2022/04/02 08:50:05;;;;;;;22.70;13.23;;;;;;;7.99;52.55;98205.69;4484429;32;32112;-76
2022/04/02 08:52:52;;;;;;;19.35;12.88;;;;;;;7.61;53.07;98225.87;4485398;32;34545;-76
2022/04/02 08:55:37;;;;;;;20.20;12.88;;;;;;;7.63;53.32;98226.50;4458625;32;35466;-76
2022/04/02 08:58:31;;;;;;;18.02;12.15;;;;;;;7.52;53.51;98222.59;4471514;32;33875;-75
2022/04/02 09:01:11;;;;;;;18.85;12.43;;;;;;;8.33;52.12;98232.41;4485469;32;33555;-75
2022/04/02 09:04:09;;;;;;;19.75;12.60;;;;;;;8.42;52.59;98225.56;4458185;32;32920;-74
2022/04/02 09:06:50;;;;;;;26.58;15.07;;;;;;;8.25;52.84;98229.94;4471525;32;34416;-72
2022/04/02 09:09:26;;;;;;;23.85;14.07;;;;;;;8.05;53.01;98229.34;4471217;32;34072;-74
2022/04/02 09:12:22;;;;;;;18.10;11.65;;;;;;;8.31;52.24;98236.41;4470921;32;32758;-74
2022/04/02 09:15:19;;;;;;;19.27;12.60;;;;;;;8.69;51.41;98238.84;4458168;32;32276;-73
2022/04/02 09:18:02;;;;;;;17.92;11.95;;;;;;;7.80;52.40;98246.66;4470478;32;35343;-74
2022/04/02 09:20:51;;;;;;;19.65;12.37;;;;;;;7.60;52.34;98255.06;4485062;32;34702;-74
2022/04/02 09:23:43;;;;;;;20.88;11.00;;;;;;;8.17;52.02;98244.75;4470759;32;33088;-74
2022/04/02 09:26:36;;;;;;;18.48;11.48;;;;;;;8.48;50.80;98253.84;4470380;32;34470;-74
2022/04/02 09:29:16;;;;;;;20.70;12.35;;;;;;;8.62;51.54;98247.13;4485154;32;34387;-74
2022/04/02 09:31:57;;;;;;;21.60;14.43;;;;;;;9.11;51.24;98256.06;4471457;32;34049;-74
2022/04/02 09:34:54;;;;;;;20.77;11.85;;;;;;;8.24;50.77;98253.72;4485435;32;34017;-73
2022/04/02 09:37:43;;;;;;;19.42;12.25;;;;;;;8.90;52.23;98263.78;4470774;32;34347;-74
2022/04/02 09:40:11;;;;;;;17.70;12.00;;;;;;;9.24;50.23;98264.91;4481654;32;35191;-74
2022/04/02 09:42:41;;;;;;;17.30;11.15;;;;;;;9.14;50.31;98272.84;4486591;31;33570;-74
2022/04/02 09:45:12;;;;;;;16.75;11.25;;;;;;;9.18;48.83;98275.97;4493700;31;34072;-74
2022/04/02 09:47:51;;;;;;;18.45;11.85;;;;;;;9.22;49.54;98271.69;4482664;31;33558;-74
2022/04/02 09:50:25;;;;;;;20.98;11.70;;;;;;;9.48;48.89;98276.72;4470409;31;34363;-74
2022/04/02 09:53:06;;;;;;;20.52;12.70;;;;;;;9.20;48.93;98273.81;4482891;31;33888;-74
2022/04/02 09:56:03;;;;;;;16.02;10.63;;;;;;;8.98;49.80;98280.94;4490932;31;33298;-74
2022/04/02 09:58:45;;;;;;;16.70;11.18;;;;;;;8.73;49.28;98279.16;4479169;31;33960;-74
2022/04/02 10:01:48;;;;;;;18.55;12.57;;;;;;;8.47;50.65;98277.63;4489791;31;34459;-75
2022/04/02 10:04:42;;;;;;;18.25;10.90;;;;;;;9.05;49.84;98292.63;4470355;32;33911;-75
2022/04/02 10:07:26;;;;;;;17.40;10.90;;;;;;;8.01;51.70;98288.25;4469798;32;31697;-75
2022/04/02 10:09:57;;;;;;;18.08;10.55;;;;;;;8.26;51.31;98287.13;4457208;32;32593;-75
2022/04/02 10:12:29;;;;;;;17.58;11.73;;;;;;;8.63;50.53;98284.34;4483021;31;34344;-76
2022/04/02 10:14:58;;;;;;;17.30;11.05;;;;;;;8.78;50.89;98257.44;4471411;31;33843;-76
2022/04/02 10:17:28;;;;;;;16.83;11.02;;;;;;;8.38;50.92;98279.03;4472689;31;33379;-76
2022/04/02 10:19:58;;;;;;;17.10;10.20;;;;;;;8.29;51.63;98282.25;4473048;31;33519;-75
2022/04/02 10:22:37;;;;;;;17.20;11.32;;;;;;;8.77;50.22;98290.47;4486078;31;34304;-75
2022/04/02 10:25:13;;;;;;;15.20;9.60;;;;;;;8.44;51.31;98291.78;4486078;31;34672;-76
2022/04/02 10:27:43;;;;;;;15.27;9.88;;;;;;;8.75;50.54;98295.34;4460179;31;31978;-76
2022/04/02 10:30:14;;;;;;;17.00;10.60;;;;;;;8.81;50.64;98295.25;4474034;31;34507;-77
2022/04/02 10:32:53;;;;;;;16.05;9.60;;;;;;;8.77;50.18;98285.84;4475635;31;34396;-77
2022/04/02 10:35:26;;;;;;;14.60;8.88;;;;;;;8.70;49.95;98287.00;4474820;31;34625;-76
2022/04/02 10:37:59;;;;;;;14.27;9.32;;;;;;;8.99;49.09;98290.81;4488441;31;34339;-76
2022/04/02 10:40:33;;;;;;;14.57;8.98;;;;;;;9.09;49.36;98289.19;4501352;31;33585;-77
2022/04/02 10:43:07;;;;;;;15.07;9.57;;;;;;;8.35;50.44;98295.03;4474415;31;33637;-77
2022/04/02 10:45:41;;;;;;;18.45;9.00;;;;;;;8.55;50.53;98287.41;4475738;31;34595;-76
2022/04/02 10:48:14;;;;;;;14.63;9.63;;;;;;;8.39;50.62;98294.34;4473509;31;33230;-77
2022/04/02 10:50:42;;;;;;;22.00;15.98;;;;;;;8.77;50.74;98299.53;4474667;31;34144;-75
2022/04/02 10:53:11;;;;;;;17.37;11.23;;;;;;;8.89;51.20;98292.19;4474373;31;32944;-77
2022/04/02 10:55:45;;;;;;;17.08;10.00;;;;;;;9.11;50.83;98299.84;4474488;31;33366;-75
2022/04/02 10:58:18;;;;;;;14.35;9.57;;;;;;;9.24;49.83;98305.12;4487317;31;34006;-75
2022/04/02 11:00:58;;;;;;;18.12;12.30;;;;;;;8.95;49.45;98311.50;4488301;31;34721;-75
2022/04/02 11:03:39;;;;;;;20.55;12.35;;;;;;;8.80;49.78;98310.00;4486519;31;34344;-75
2022/04/02 11:06:09;;;;;;;24.95;14.50;;;;;;;8.60;50.03;98312.16;4487824;31;34672;-76
2022/04/02 11:08:49;;;;;;;19.77;12.07;;;;;;;8.39;52.66;98324.44;4472680;31;33216;-75
2022/04/02 11:11:27;;;;;;;26.42;16.73;;;;;;;8.75;50.31;98317.22;4471865;31;33681;-75
2022/04/02 11:14:03;;;;;;;18.50;10.85;;;;;;;8.69;50.42;98318.16;4486182;31;34112;-75
2022/04/02 11:16:41;;;;;;;15.75;9.75;;;;;;;8.11;52.03;98326.81;4485576;31;33362;-75
2022/04/02 11:22:11;;;;;;;14.00;9.43;;;;;;;8.21;51.85;98321.66;4500983;31;33265;-75
2022/04/02 11:25:08;;;;;;;16.73;9.90;;;;;;;8.10;51.81;98325.16;4474817;31;34321;-75
2022/04/02 11:27:41;;;;;;;14.48;9.30;;;;;;;8.39;51.86;98329.06;4474818;31;33891;-75
2022/04/02 11:30:11;;;;;;;14.77;9.90;;;;;;;8.68;51.60;98328.25;4487320;31;33235;-75
2022/04/02 11:32:46;;;;;;;14.23;9.27;;;;;;;8.79;51.18;98327.47;4487565;31;33790;-75
2022/04/02 11:35:15;;;;;;;17.08;9.48;;;;;;;8.71;50.63;98326.97;4487680;31;34495;-73
2022/04/02 11:38:11;;;;;;;15.27;9.63;;;;;;;8.72;51.28;98329.47;4474952;31;32417;-76
2022/04/02 11:40:42;;;;;;;17.73;10.10;;;;;;;8.96;51.15;98332.31;4473795;31;31735;-77
2022/04/02 11:43:11;;;;;;;17.25;10.23;;;;;;;8.70;51.00;98338.97;4474256;31;33053;-73
2022/04/02 11:45:43;;;;;;;14.25;8.75;;;;;;;8.69;51.74;98329.09;4487598;31;35566;-75
2022/04/02 11:48:18;;;;;;;42.13;23.60;;;;;;;9.04;51.41;98335.56;4474781;31;32681;-75
2022/04/02 11:51:10;;;;;;;19.75;12.00;;;;;;;9.12;51.89;98337.94;4461838;31;31841;-75
2022/04/02 11:53:40;;;;;;;33.45;16.83;;;;;;;8.39;51.44;98332.63;4473485;31;33554;-75
2022/04/02 11:56:34;;;;;;;19.42;12.07;;;;;;;8.82;50.43;98343.44;4474599;31;35230;-75
2022/04/02 11:59:09;;;;;;;15.25;9.68;;;;;;;8.55;50.77;98339.34;4487313;31;34646;-74
2022/04/02 12:01:44;;;;;;;17.27;10.65;;;;;;;8.82;51.25;98332.50;4501486;31;34257;-75
2022/04/02 12:04:17;;;;;;;25.83;14.40;;;;;;;8.54;50.85;98327.59;4487456;31;34515;-75
2022/04/02 12:06:51;;;;;;;20.12;12.55;;;;;;;8.91;51.79;98346.69;4474309;31;32954;-75